createdAt,value
2023-05-06T00:00:12.371Z,68.6526
2023-05-06T00:01:14.719Z,68.6731
2023-05-06T00:02:16.981Z,68.6802
2023-05-06T00:03:18.690Z,68.8005
2023-05-06T00:04:22.079Z,68.9158
2023-05-06T00:05:23.888Z,68.7569
2023-05-06T00:06:25.616Z,68.8001
2023-05-06T00:07:28.076Z,68.9222
2023-05-06T00:08:30.383Z,68.7009
2023-05-06T00:09:32.661Z,69.1191
2023-05-06T00:10:35.114Z,69.2600
2023-05-06T00:11:38.117Z,68.9910
2023-05-06T00:12:39.676Z,68.9514
2023-05-06T00:13:42.013Z,68.7744
2023-05-06T00:14:44.959Z,68.5309
2023-05-06T00:15:46.657Z,68.3763
2023-05-06T00:16:49.066Z,68.6047
2023-05-06T00:17:51.760Z,68.4938
2023-05-06T00:18:54.090Z,68.1876
2023-05-06T00:19:56.025Z,68.5561
2023-05-06T00:20:58.359Z,68.7296
2023-05-06T00:22:00.692Z,68.7668
2023-05-06T00:23:03.025Z,69.1353
2023-05-06T00:24:05.464Z,68.8878
2023-05-06T00:25:08.134Z,68.6388
2023-05-06T00:26:10.190Z,68.8445
2023-05-06T00:27:12.499Z,68.9421
2023-05-06T00:28:14.812Z,68.5917
2023-05-06T00:29:17.793Z,68.3723
2023-05-06T00:30:21.511Z,68.2255
2023-05-06T00:31:22.351Z,68.2218
2023-05-06T00:32:24.348Z,68.2910
2023-05-06T00:33:26.421Z,68.3933
2023-05-06T00:34:28.979Z,68.4425
2023-05-06T00:35:31.161Z,68.4100
2023-05-06T00:36:33.764Z,68.4456
2023-05-06T00:37:35.791Z,68.5677
2023-05-06T00:38:39.850Z,68.6857
2023-05-06T00:39:41.872Z,68.7302
2023-05-06T00:40:42.894Z,68.7603
2023-05-06T00:41:45.140Z,68.8243
2023-05-06T00:42:47.457Z,68.9232
2023-05-06T00:43:49.813Z,69.0224
2023-05-06T00:44:52.168Z,69.3398
2023-05-06T00:45:54.557Z,69.5513
2023-05-06T00:46:56.783Z,69.6167
2023-05-06T00:47:59.238Z,69.7833
2023-05-06T00:49:01.515Z,70.0512
2023-05-06T00:50:03.817Z,69.9959
2023-05-06T00:51:06.154Z,69.8600
2023-05-06T00:52:08.485Z,69.7912
2023-05-06T00:53:10.821Z,69.7264
2023-05-06T00:54:13.164Z,69.7945
2023-05-06T00:55:15.565Z,69.8471
2023-05-06T00:56:20.017Z,69.9126
2023-05-06T00:57:20.168Z,70.1391
2023-05-06T00:58:22.510Z,70.2302
2023-05-06T00:59:24.879Z,70.3342
2023-05-06T01:00:27.195Z,70.2016
2023-05-06T01:01:29.582Z,70.1601
2023-05-06T01:02:43.282Z,70.0822
2023-05-06T01:03:34.292Z,69.8739
2023-05-06T01:04:36.559Z,69.9517
2023-05-06T01:05:38.866Z,70.2928
2023-05-06T01:06:41.195Z,70.1144
2023-05-06T01:07:43.542Z,69.8187
2023-05-06T01:08:45.885Z,69.6892
2023-05-06T01:09:48.289Z,69.8037
2023-05-06T01:10:50.713Z,69.6755
2023-05-06T01:11:52.975Z,69.9219
2023-05-06T01:12:55.376Z,69.9849
2023-05-06T01:13:57.657Z,70.0550
2023-05-06T01:15:00.033Z,69.6256
2023-05-06T01:16:02.336Z,69.7269
2023-05-06T01:17:04.705Z,70.0803
2023-05-06T01:18:07.051Z,70.0673
2023-05-06T01:19:09.376Z,70.0954
2023-05-06T01:20:11.738Z,70.1220
2023-05-06T01:21:14.014Z,70.2503
2023-05-06T01:22:16.358Z,70.1564
2023-05-06T01:23:18.713Z,70.1238
2023-05-06T01:24:21.054Z,70.0347
2023-05-06T01:25:23.391Z,69.9814
2023-05-06T01:26:25.808Z,69.7392
2023-05-06T01:27:28.145Z,69.5080
2023-05-06T01:28:30.428Z,69.3864
2023-05-06T01:29:32.832Z,69.4244
2023-05-06T01:30:35.105Z,69.4686
2023-05-06T01:31:37.509Z,69.6036
2023-05-06T01:32:39.783Z,69.2685
2023-05-06T01:33:42.114Z,69.4529
2023-05-06T01:34:44.593Z,69.2209
2023-05-06T01:35:46.837Z,68.8226
2023-05-06T01:36:49.147Z,68.6237
2023-05-06T01:37:51.552Z,68.6811
2023-05-06T01:38:53.784Z,68.6820
2023-05-06T01:39:56.144Z,68.4461
2023-05-06T01:40:58.488Z,68.2051
2023-05-06T01:42:00.824Z,68.2785
2023-05-06T01:43:03.181Z,69.1762
2023-05-06T01:44:05.453Z,69.1912
2023-05-06T01:45:08.170Z,69.3722
2023-05-06T01:46:10.357Z,69.7020
2023-05-06T01:47:12.649Z,69.4196
2023-05-06T01:48:14.852Z,68.1727
2023-05-06T01:49:17.199Z,67.0499
2023-05-06T01:50:19.476Z,66.3957
2023-05-06T01:51:21.896Z,65.8102
2023-05-06T01:52:24.183Z,64.9768
2023-05-06T01:53:26.527Z,65.7468
2023-05-06T01:54:28.870Z,67.1738
2023-05-06T01:55:31.198Z,68.0673
2023-05-06T01:56:33.555Z,68.6205
2023-05-06T01:57:35.937Z,68.9048
2023-05-06T01:58:38.209Z,69.0465
2023-05-06T01:59:40.555Z,69.0788
2023-05-06T02:00:42.891Z,68.9261
2023-05-06T02:01:45.283Z,69.0954
2023-05-06T02:02:47.716Z,69.4214
2023-05-06T02:03:50.064Z,69.6481
2023-05-06T02:04:52.232Z,69.7057
2023-05-06T02:05:54.564Z,70.0141
2023-05-06T02:06:56.918Z,69.9019
2023-05-06T02:07:59.209Z,69.7341
2023-05-06T02:09:01.573Z,69.7198
2023-05-06T02:10:03.919Z,69.5327
2023-05-06T02:11:06.253Z,69.7371
2023-05-06T02:12:08.647Z,70.1812
2023-05-06T02:13:11.054Z,70.0564
2023-05-06T02:14:13.257Z,69.9402
2023-05-06T02:15:15.709Z,69.8888
2023-05-06T02:16:17.979Z,69.8972
2023-05-06T02:17:20.369Z,69.8074
2023-05-06T02:18:22.745Z,69.9080
2023-05-06T02:19:24.959Z,70.0465
2023-05-06T02:20:27.342Z,69.7628
2023-05-06T02:21:29.802Z,69.4243
2023-05-06T02:22:31.991Z,69.4757
2023-05-06T02:23:34.318Z,69.6151
2023-05-06T02:24:36.904Z,69.6377
2023-05-06T02:25:39.133Z,69.6976
2023-05-06T02:26:41.462Z,69.6543
2023-05-06T02:27:43.743Z,69.7437
2023-05-06T02:28:46.102Z,69.7491
2023-05-06T02:29:48.348Z,70.0514
2023-05-06T02:30:50.692Z,70.0947
2023-05-06T02:31:53.171Z,69.6645
2023-05-06T02:32:55.422Z,69.2355
2023-05-06T02:33:57.809Z,69.2968
2023-05-06T02:35:00.065Z,69.4888
2023-05-06T02:36:02.809Z,69.4501
2023-05-06T02:37:04.707Z,69.6215
2023-05-06T02:38:07.082Z,69.6403
2023-05-06T02:39:09.572Z,69.6449
2023-05-06T02:40:11.843Z,69.5666
2023-05-06T02:41:14.097Z,69.2013
2023-05-06T02:42:16.614Z,68.7618
2023-05-06T02:43:19.217Z,68.9796
2023-05-06T02:44:21.176Z,69.4574
2023-05-06T02:45:23.465Z,69.2580
2023-05-06T02:46:25.799Z,68.9889
2023-05-06T02:47:28.179Z,68.9455
2023-05-06T02:48:30.491Z,69.0090
2023-05-06T02:49:32.855Z,68.8585
2023-05-06T02:50:35.162Z,68.7621
2023-05-06T02:51:37.496Z,68.7792
2023-05-06T02:52:39.841Z,68.7861
2023-05-06T02:53:42.178Z,69.2141
2023-05-06T02:54:44.530Z,69.3096
2023-05-06T02:55:47.008Z,68.9351
2023-05-06T02:56:49.210Z,68.9182
2023-05-06T02:57:51.552Z,69.2693
2023-05-06T02:58:53.919Z,68.8070
2023-05-06T02:59:56.316Z,68.1332
2023-05-06T03:00:58.592Z,68.3615
2023-05-06T03:02:00.917Z,68.2469
2023-05-06T03:03:03.267Z,68.6847
2023-05-06T03:04:05.632Z,69.1081
2023-05-06T03:05:08.163Z,69.1999
2023-05-06T03:06:10.283Z,69.3812
2023-05-06T03:07:12.614Z,69.8254
2023-05-06T03:08:14.959Z,69.5882
2023-05-06T03:09:17.319Z,69.1997
2023-05-06T03:10:19.644Z,69.2687
2023-05-06T03:11:21.986Z,69.3700
2023-05-06T03:12:24.321Z,69.2956
2023-05-06T03:13:26.657Z,68.9991
2023-05-06T03:14:29.007Z,69.0912
2023-05-06T03:15:31.417Z,69.5611
2023-05-06T03:16:33.678Z,69.4662
2023-05-06T03:17:36.145Z,69.3196
2023-05-06T03:18:38.379Z,69.5815
2023-05-06T03:19:40.724Z,69.7500
2023-05-06T03:20:43.055Z,69.5145
2023-05-06T03:21:45.452Z,70.0755
2023-05-06T03:22:47.727Z,70.1357
2023-05-06T03:23:50.090Z,69.4243
2023-05-06T03:24:52.435Z,69.3033
2023-05-06T03:25:54.749Z,69.2611
2023-05-06T03:26:57.070Z,69.9070
2023-05-06T03:27:59.422Z,70.0627
2023-05-06T03:29:01.783Z,70.1303
2023-05-06T03:30:04.138Z,70.1952
2023-05-06T03:31:06.745Z,70.1560
2023-05-06T03:32:08.809Z,69.7161
2023-05-06T03:33:11.126Z,69.6960
2023-05-06T03:34:13.491Z,69.6266
2023-05-06T03:35:15.860Z,69.5829
2023-05-06T03:36:18.172Z,69.0679
2023-05-06T03:37:20.519Z,69.1467
2023-05-06T03:38:22.842Z,69.3618
2023-05-06T03:39:25.188Z,69.4021
2023-05-06T03:40:27.573Z,69.2882
2023-05-06T03:41:29.891Z,69.8140
2023-05-06T03:42:32.232Z,70.1887
2023-05-06T03:43:34.552Z,70.1741
2023-05-06T03:44:36.892Z,70.0509
2023-05-06T03:45:39.201Z,70.2533
2023-05-06T03:46:41.953Z,71.3223
2023-05-06T03:47:43.932Z,70.9478
2023-05-06T03:48:46.242Z,70.6413
2023-05-06T03:49:48.613Z,70.5023
2023-05-06T03:50:50.959Z,70.6519
2023-05-06T03:51:53.279Z,70.4308
2023-05-06T03:52:55.619Z,70.2073
2023-05-06T03:53:57.957Z,70.2715
2023-05-06T03:55:00.304Z,70.5650
2023-05-06T03:56:02.656Z,70.1067
2023-05-06T03:57:04.979Z,69.9930
2023-05-06T03:58:07.315Z,70.1914
2023-05-06T03:59:09.655Z,70.4134
2023-05-06T04:00:11.970Z,69.9373
2023-05-06T04:01:14.337Z,69.5740
2023-05-06T04:02:16.853Z,69.5310
2023-05-06T04:03:19.089Z,69.5827
2023-05-06T04:04:21.374Z,69.7194
2023-05-06T04:05:23.720Z,69.7369
2023-05-06T04:06:26.058Z,69.6281
2023-05-06T04:07:28.392Z,69.6190
2023-05-06T04:08:30.745Z,70.1094
2023-05-06T04:09:33.088Z,70.1516
2023-05-06T04:10:35.420Z,70.1907
2023-05-06T04:11:37.759Z,70.0813
2023-05-06T04:12:40.106Z,69.6644
2023-05-06T04:13:42.460Z,69.7206
2023-05-06T04:14:45.225Z,69.6774
2023-05-06T04:15:47.824Z,69.7577
2023-05-06T04:16:49.472Z,69.9835
2023-05-06T04:17:52.062Z,70.2402
2023-05-06T04:18:54.162Z,70.1884
2023-05-06T04:19:56.469Z,70.4156
2023-05-06T04:20:58.964Z,70.8715
2023-05-06T04:22:01.508Z,71.5285
2023-05-06T04:23:03.524Z,71.4294
2023-05-06T04:24:06.393Z,70.9511
2023-05-06T04:25:08.401Z,70.8070
2023-05-06T04:26:10.966Z,70.5383
2023-05-06T04:27:13.970Z,70.6397
2023-05-06T04:28:15.654Z,70.9506
2023-05-06T04:29:17.626Z,71.7559
2023-05-06T04:30:19.922Z,71.5244
2023-05-06T04:31:22.272Z,70.8045
2023-05-06T04:32:24.609Z,70.6609
2023-05-06T04:33:26.959Z,70.9315
2023-05-06T04:34:29.301Z,71.1673
2023-05-06T04:35:31.633Z,71.5067
2023-05-06T04:36:33.992Z,71.4254
2023-05-06T04:37:36.513Z,71.9152
2023-05-06T04:38:38.667Z,72.1377
2023-05-06T04:39:41.010Z,72.5057
2023-05-06T04:40:43.480Z,72.4582
2023-05-06T04:41:45.656Z,72.6442
2023-05-06T04:42:48.006Z,73.1370
2023-05-06T04:43:50.306Z,72.9115
2023-05-06T04:44:52.695Z,72.8983
2023-05-06T04:45:55.050Z,73.2302
2023-05-06T04:46:57.383Z,73.5461
2023-05-06T04:47:59.732Z,72.9568
2023-05-06T04:49:02.122Z,72.4058
2023-05-06T04:50:04.422Z,72.2034
2023-05-06T04:51:06.718Z,71.9576
2023-05-06T04:52:09.066Z,71.8736
2023-05-06T04:53:11.400Z,71.7810
2023-05-06T04:54:13.761Z,71.5741
2023-05-06T04:55:16.122Z,71.5344
2023-05-06T04:56:18.434Z,71.2468
2023-05-06T04:57:20.774Z,71.0599
2023-05-06T04:58:23.120Z,71.3134
2023-05-06T04:59:25.482Z,71.7073
2023-05-06T05:00:27.820Z,71.7766
2023-05-06T05:01:30.206Z,71.6603
2023-05-06T05:02:32.573Z,71.4294
2023-05-06T05:03:34.920Z,71.6618
2023-05-06T05:04:37.171Z,71.8271
2023-05-06T05:05:39.530Z,71.9482
2023-05-06T05:06:41.864Z,71.9380
2023-05-06T05:07:44.193Z,71.9596
2023-05-06T05:08:46.551Z,72.2203
2023-05-06T05:09:48.885Z,72.4539
2023-05-06T05:10:51.245Z,72.4001
2023-05-06T05:11:53.568Z,72.1240
2023-05-06T05:12:55.952Z,72.0759
2023-05-06T05:13:59.579Z,72.1066
2023-05-06T05:15:00.717Z,72.1204
2023-05-06T05:16:03.044Z,72.2143
2023-05-06T05:17:05.418Z,72.1892
2023-05-06T05:18:07.820Z,72.4171
2023-05-06T05:19:10.060Z,72.9810
2023-05-06T05:20:12.411Z,72.8497
2023-05-06T05:21:14.760Z,72.5361
2023-05-06T05:22:17.088Z,72.3882
2023-05-06T05:23:19.426Z,72.4659
2023-05-06T05:24:21.765Z,72.7030
2023-05-06T05:25:24.104Z,72.2122
2023-05-06T05:26:26.450Z,72.2963
2023-05-06T05:27:28.801Z,72.2541
2023-05-06T05:28:31.139Z,72.1509
2023-05-06T05:29:33.482Z,72.4490
2023-05-06T05:30:35.819Z,72.3075
2023-05-06T05:31:38.190Z,72.1241
2023-05-06T05:32:40.507Z,71.8619
2023-05-06T05:33:42.889Z,71.6775
2023-05-06T05:34:45.203Z,71.7661
2023-05-06T05:35:47.609Z,72.0993
2023-05-06T05:36:49.873Z,72.0036
2023-05-06T05:37:52.213Z,72.0615
2023-05-06T05:38:54.569Z,71.8815
2023-05-06T05:39:56.899Z,71.1583
2023-05-06T05:40:59.234Z,70.7549
2023-05-06T05:42:01.587Z,70.8489
2023-05-06T05:43:03.916Z,70.7126
2023-05-06T05:44:06.259Z,70.8664
2023-05-06T05:45:08.706Z,70.9432
2023-05-06T05:46:10.951Z,71.4121
2023-05-06T05:47:13.272Z,71.4310
2023-05-06T05:48:15.616Z,72.1906
2023-05-06T05:49:17.967Z,72.2312
2023-05-06T05:50:20.296Z,71.6656
2023-05-06T05:51:22.820Z,71.6381
2023-05-06T05:52:24.978Z,71.9718
2023-05-06T05:53:27.317Z,72.4136
2023-05-06T05:54:29.698Z,72.4055
2023-05-06T05:55:31.995Z,71.6614
2023-05-06T05:56:34.338Z,71.9270
2023-05-06T05:57:37.504Z,72.3053
2023-05-06T05:58:39.062Z,71.8536
2023-05-06T05:59:41.414Z,72.2282
2023-05-06T06:00:44.040Z,72.6465
2023-05-06T06:01:46.465Z,72.3666
2023-05-06T06:02:48.426Z,72.0835
2023-05-06T06:03:50.948Z,72.6537
2023-05-06T06:04:53.249Z,72.8998
2023-05-06T06:05:55.596Z,72.6929
2023-05-06T06:06:57.917Z,72.6164
2023-05-06T06:08:02.210Z,72.4229
2023-05-06T06:09:02.400Z,71.9502
2023-05-06T06:10:04.787Z,71.5817
2023-05-06T06:11:07.168Z,71.7359
2023-05-06T06:12:09.424Z,72.7748
2023-05-06T06:13:11.877Z,72.7423
2023-05-06T06:14:14.171Z,72.6527
2023-05-06T06:15:16.459Z,71.9966
2023-05-06T06:16:18.855Z,71.7433
2023-05-06T06:17:21.677Z,71.8485
2023-05-06T06:18:23.467Z,71.7818
2023-05-06T06:19:25.823Z,71.3313
2023-05-06T06:20:28.154Z,71.1972
2023-05-06T06:21:30.635Z,71.6508
2023-05-06T06:22:32.991Z,71.3336
2023-05-06T06:23:35.241Z,71.4306
2023-05-06T06:24:37.539Z,71.3412
2023-05-06T06:25:39.996Z,71.3327
2023-05-06T06:26:42.277Z,71.2836
2023-05-06T06:27:44.605Z,71.3751
2023-05-06T06:28:47.030Z,71.0963
2023-05-06T06:29:49.205Z,70.8814
2023-05-06T06:30:52.605Z,70.5582
2023-05-06T06:31:54.862Z,70.3097
2023-05-06T06:32:56.483Z,70.8284
2023-05-06T06:33:58.907Z,70.4089
2023-05-06T06:35:00.890Z,70.4330
2023-05-06T06:36:03.232Z,70.5582
2023-05-06T06:37:07.806Z,70.7872
2023-05-06T06:38:12.313Z,71.0657
2023-05-06T06:39:10.239Z,70.6982
2023-05-06T06:40:14.890Z,70.7659
2023-05-06T06:41:15.096Z,70.6577
2023-05-06T06:42:17.789Z,70.8682
2023-05-06T06:43:19.593Z,70.9204
2023-05-06T06:44:22.857Z,71.4244
2023-05-06T06:45:24.811Z,71.9103
2023-05-06T06:46:26.627Z,71.9620
2023-05-06T06:47:29.055Z,71.8452
2023-05-06T06:48:31.366Z,70.9633
2023-05-06T06:49:33.728Z,70.9117
2023-05-06T06:50:35.975Z,71.4426
2023-05-06T06:51:38.310Z,70.9192
2023-05-06T06:52:40.720Z,71.1422
2023-05-06T06:53:43.120Z,71.4663
2023-05-06T06:54:45.334Z,72.2196
2023-05-06T06:55:47.770Z,71.8809
2023-05-06T06:56:50.007Z,71.4528
2023-05-06T06:57:52.345Z,71.2864
2023-05-06T06:58:54.665Z,71.1509
2023-05-06T06:59:57.136Z,71.7228
2023-05-06T07:00:59.406Z,72.4948
2023-05-06T07:02:01.671Z,71.4016
2023-05-06T07:03:04.139Z,71.0241
2023-05-06T07:04:07.227Z,70.9262
2023-05-06T07:05:08.992Z,70.6946
2023-05-06T07:06:11.009Z,71.6114
2023-05-06T07:07:13.511Z,71.3821
2023-05-06T07:08:16.059Z,71.2476
2023-05-06T07:09:18.100Z,70.9264
2023-05-06T07:10:20.730Z,70.4005
2023-05-06T07:11:22.802Z,70.5020
2023-05-06T07:12:25.234Z,70.9452
2023-05-06T07:13:27.438Z,70.1941
2023-05-06T07:14:29.736Z,70.4133
2023-05-06T07:15:32.200Z,70.9671
2023-05-06T07:16:34.409Z,71.1316
2023-05-06T07:17:36.919Z,71.3215
2023-05-06T07:18:39.814Z,70.7948
2023-05-06T07:19:41.422Z,70.2056
2023-05-06T07:20:43.798Z,69.9960
2023-05-06T07:21:46.120Z,69.6045
2023-05-06T07:22:48.471Z,69.0721
2023-05-06T07:23:50.816Z,69.2191
2023-05-06T07:24:53.287Z,69.0149
2023-05-06T07:25:55.539Z,70.0330
2023-05-06T07:26:58.055Z,70.5070
2023-05-06T07:28:00.139Z,69.7083
2023-05-06T07:29:11.842Z,69.7830
2023-05-06T07:30:04.888Z,70.3357
2023-05-06T07:31:07.356Z,70.0827
2023-05-06T07:32:09.589Z,68.7018
2023-05-06T07:33:11.970Z,69.5482
2023-05-06T07:34:14.566Z,69.1195
2023-05-06T07:35:16.536Z,69.1087
2023-05-06T07:36:18.853Z,69.3427
2023-05-06T07:37:21.229Z,69.2504
2023-05-06T07:38:23.558Z,69.3620
2023-05-06T07:39:25.958Z,69.0779
2023-05-06T07:40:28.294Z,68.7810
2023-05-06T07:41:30.551Z,68.6974
2023-05-06T07:42:32.935Z,69.4266
2023-05-06T07:43:35.327Z,68.8684
2023-05-06T07:44:37.588Z,68.7055
2023-05-06T07:45:40.022Z,68.5797
2023-05-06T07:46:42.440Z,67.9916
2023-05-06T07:47:44.687Z,67.3368
2023-05-06T07:48:46.986Z,67.5123
2023-05-06T07:49:49.316Z,68.1488
2023-05-06T07:50:51.965Z,67.9230
2023-05-06T07:51:54.032Z,67.4811
2023-05-06T07:52:56.597Z,66.8129
2023-05-06T07:53:58.762Z,66.4724
2023-05-06T07:55:01.008Z,67.2223
2023-05-06T07:56:03.425Z,68.1399
2023-05-06T07:57:06.159Z,67.3068
2023-05-06T07:58:08.012Z,66.8377
2023-05-06T07:59:10.477Z,66.2511
2023-05-06T08:00:12.878Z,65.5272
2023-05-06T08:01:15.041Z,64.7812
2023-05-06T08:02:17.591Z,64.6865
2023-05-06T08:03:20.219Z,64.4957
2023-05-06T08:04:22.754Z,64.4929
2023-05-06T08:05:25.467Z,63.9070
2023-05-06T08:06:27.395Z,63.9678
2023-05-06T08:07:29.279Z,63.3386
2023-05-06T08:08:31.541Z,63.2694
2023-05-06T08:09:34.030Z,63.3688
2023-05-06T08:10:36.250Z,63.7717
2023-05-06T08:11:39.137Z,63.8877
2023-05-06T08:12:40.879Z,63.4346
2023-05-06T08:13:43.262Z,63.0399
2023-05-06T08:14:47.174Z,63.0496
2023-05-06T08:15:47.961Z,62.3577
2023-05-06T08:16:50.415Z,62.5785
2023-05-06T08:17:52.965Z,62.5268
2023-05-06T08:18:55.454Z,62.3318
2023-05-06T08:19:57.288Z,61.9308
2023-05-06T08:20:59.623Z,62.5052
2023-05-06T08:22:02.285Z,62.7304
2023-05-06T08:23:04.713Z,61.6019
2023-05-06T08:24:06.781Z,61.9615
2023-05-06T08:25:11.006Z,60.7759
2023-05-06T08:26:11.330Z,59.5592
2023-05-06T08:27:15.013Z,60.0620
2023-05-06T08:28:15.958Z,59.4734
2023-05-06T08:29:18.405Z,59.8387
2023-05-06T08:30:20.674Z,60.5418
2023-05-06T08:31:23.028Z,60.2629
2023-05-06T08:32:25.530Z,59.7052
2023-05-06T08:33:27.694Z,59.4215
2023-05-06T08:34:30.024Z,59.2418
2023-05-06T08:35:32.419Z,58.7494
2023-05-06T08:36:34.672Z,59.2752
2023-05-06T08:37:37.167Z,58.9973
2023-05-06T08:38:39.390Z,58.6734
2023-05-06T08:39:41.741Z,58.3427
2023-05-06T08:40:44.054Z,58.2097
2023-05-06T08:41:46.425Z,57.7744
2023-05-06T08:42:48.764Z,58.0919
2023-05-06T08:43:51.073Z,58.2340
2023-05-06T08:44:53.466Z,58.0954
2023-05-06T08:45:55.861Z,57.9310
2023-05-06T08:46:58.142Z,58.3717
2023-05-06T08:48:00.519Z,58.4335
2023-05-06T08:49:02.824Z,57.1283
2023-05-06T08:50:05.170Z,58.0191
2023-05-06T08:51:07.540Z,57.8045
2023-05-06T08:52:09.862Z,57.2445
2023-05-06T08:53:12.259Z,56.4431
2023-05-06T08:54:14.534Z,56.6630
2023-05-06T08:55:17.579Z,56.4059
2023-05-06T08:56:19.253Z,57.2509
2023-05-06T08:57:21.568Z,57.2962
2023-05-06T08:58:23.986Z,57.2396
2023-05-06T08:59:26.328Z,57.5085
2023-05-06T09:00:28.695Z,57.4327
2023-05-06T09:01:31.071Z,57.5078
2023-05-06T09:02:33.424Z,56.3558
2023-05-06T09:03:35.691Z,56.2261
2023-05-06T09:04:38.042Z,55.7598
2023-05-06T09:05:40.368Z,56.4541
2023-05-06T09:06:42.738Z,56.5393
2023-05-06T09:07:45.199Z,56.2426
2023-05-06T09:08:47.401Z,55.1865
2023-05-06T09:09:49.803Z,54.0365
2023-05-06T09:10:52.147Z,54.5424
2023-05-06T09:11:54.468Z,55.4174
2023-05-06T09:12:56.957Z,55.1774
2023-05-06T09:13:59.275Z,55.6086
2023-05-06T09:15:01.547Z,55.4071
2023-05-06T09:16:03.887Z,54.7717
2023-05-06T09:17:06.273Z,54.4512
2023-05-06T09:18:08.689Z,53.9064
2023-05-06T09:19:10.938Z,53.9040
2023-05-06T09:20:13.342Z,54.1066
2023-05-06T09:21:15.658Z,54.0242
2023-05-06T09:22:18.028Z,53.8665
2023-05-06T09:23:20.376Z,53.7462
2023-05-06T09:24:22.787Z,53.3819
2023-05-06T09:25:25.118Z,54.1370
2023-05-06T09:26:27.450Z,53.8984
2023-05-06T09:27:29.762Z,53.3827
2023-05-06T09:28:32.139Z,53.3997
2023-05-06T09:29:34.504Z,53.6388
2023-05-06T09:30:36.829Z,53.4957
2023-05-06T09:31:39.215Z,52.9846
2023-05-06T09:32:41.568Z,52.6599
2023-05-06T09:33:43.858Z,52.8152
2023-05-06T09:34:47.622Z,52.9691
2023-05-06T09:35:48.628Z,53.4439
2023-05-06T09:36:51.140Z,53.4918
2023-05-06T09:38:12.447Z,53.5399
2023-05-06T09:39:03.249Z,53.9182
2023-05-06T09:39:57.955Z,53.8920
2023-05-06T09:41:01.903Z,53.2129
2023-05-06T09:42:02.737Z,52.5036
2023-05-06T09:43:05.076Z,52.1389
2023-05-06T09:44:07.405Z,52.3960
2023-05-06T09:45:10.023Z,52.1291
2023-05-06T09:46:12.077Z,52.0617
2023-05-06T09:47:14.445Z,51.9900
2023-05-06T09:48:18.947Z,51.4678
2023-05-06T09:49:20.777Z,51.5495
2023-05-06T09:50:21.738Z,51.8649
2023-05-06T09:51:23.847Z,51.6023
2023-05-06T09:52:26.194Z,50.7280
2023-05-06T09:53:28.544Z,50.2461
2023-05-06T09:54:30.912Z,50.9597
2023-05-06T09:55:33.258Z,51.5564
2023-05-06T09:56:35.637Z,51.8678
2023-05-06T09:57:37.932Z,52.1217
2023-05-06T09:58:40.628Z,52.0412
2023-05-06T09:59:42.666Z,52.4158
2023-05-06T10:00:45.068Z,51.9319
2023-05-06T10:01:47.416Z,52.5450
2023-05-06T10:02:50.007Z,52.8531
2023-05-06T10:03:52.218Z,52.9526
2023-05-06T10:04:54.698Z,52.9442
2023-05-06T10:05:56.779Z,52.3103
2023-05-06T10:06:59.102Z,51.4492
2023-05-06T10:08:01.433Z,51.3839
2023-05-06T10:09:03.784Z,51.3612
2023-05-06T10:10:06.165Z,51.6523
2023-05-06T10:11:08.515Z,51.5427
2023-05-06T10:12:10.887Z,50.6762
2023-05-06T10:13:13.236Z,50.9102
2023-05-06T10:14:15.569Z,51.3904
2023-05-06T10:15:17.909Z,51.0865
2023-05-06T10:16:20.341Z,50.4863
2023-05-06T10:17:22.638Z,51.8010
2023-05-06T10:18:24.947Z,51.4442
2023-05-06T10:19:27.304Z,51.1534
2023-05-06T10:20:29.643Z,50.8257
2023-05-06T10:21:32.008Z,51.6354
2023-05-06T10:22:34.361Z,51.5660
2023-05-06T10:23:36.698Z,50.1396
2023-05-06T10:24:39.067Z,50.4406
2023-05-06T10:25:41.409Z,50.1660
2023-05-06T10:26:43.774Z,49.5550
2023-05-06T10:27:46.110Z,49.7704
2023-05-06T10:28:48.456Z,50.0998
2023-05-06T10:29:50.797Z,50.3970
2023-05-06T10:30:53.142Z,50.4972
2023-05-06T10:31:55.820Z,50.8044
2023-05-06T10:32:57.918Z,50.4670
2023-05-06T10:34:00.241Z,50.6336
2023-05-06T10:35:02.587Z,50.9715
2023-05-06T10:36:04.941Z,50.3764
2023-05-06T10:37:07.287Z,50.0539
2023-05-06T10:38:09.630Z,50.5757
2023-05-06T10:39:11.980Z,50.8216
2023-05-06T10:40:14.336Z,51.7131
2023-05-06T10:41:16.690Z,52.3114
2023-05-06T10:42:19.050Z,52.2008
2023-05-06T10:43:21.400Z,52.6111
2023-05-06T10:44:23.719Z,53.9134
2023-05-06T10:45:26.105Z,53.6312
2023-05-06T10:46:28.455Z,53.0675
2023-05-06T10:47:30.919Z,54.0413
2023-05-06T10:48:33.131Z,53.0214
2023-05-06T10:49:35.504Z,53.5037
2023-05-06T10:50:37.842Z,53.1904
2023-05-06T10:51:40.206Z,53.9716
2023-05-06T10:52:42.551Z,53.4600
2023-05-06T10:53:44.889Z,52.6629
2023-05-06T10:54:47.266Z,52.7055
2023-05-06T10:55:49.601Z,53.2535
2023-05-06T10:56:51.955Z,54.7188
2023-05-06T10:57:54.288Z,54.3347
2023-05-06T10:58:56.617Z,53.1040
2023-05-06T10:59:58.986Z,52.5753
2023-05-06T11:01:01.381Z,51.7764
2023-05-06T11:02:03.699Z,51.8848
2023-05-06T11:03:06.199Z,51.7855
2023-05-06T11:04:08.395Z,51.5221
2023-05-06T11:05:10.992Z,51.1638
2023-05-06T11:06:13.076Z,50.6630
2023-05-06T11:07:15.416Z,50.3453
2023-05-06T11:08:17.760Z,50.1094
2023-05-06T11:09:20.128Z,50.0671
2023-05-06T11:10:22.471Z,50.3222
2023-05-06T11:11:24.862Z,51.2473
2023-05-06T11:12:27.177Z,51.4301
2023-05-06T11:13:29.655Z,51.2525
2023-05-06T11:14:32.377Z,51.2379
2023-05-06T11:15:34.220Z,51.5991
2023-05-06T11:16:38.684Z,50.8883
2023-05-06T11:17:38.941Z,51.0358
2023-05-06T11:18:41.349Z,51.2605
2023-05-06T11:19:43.640Z,50.1295
2023-05-06T11:20:45.980Z,49.8756
2023-05-06T11:21:50.060Z,50.3438
2023-05-06T11:22:50.684Z,50.6045
2023-05-06T11:23:52.991Z,49.6203
2023-05-06T11:24:55.374Z,49.5962
2023-05-06T11:25:57.722Z,49.2171
2023-05-06T11:27:00.054Z,49.6892
2023-05-06T11:28:02.427Z,49.4442
2023-05-06T11:29:04.743Z,49.6472
2023-05-06T11:30:07.140Z,49.6566
2023-05-06T11:31:09.558Z,49.9769
2023-05-06T11:32:11.801Z,50.2085
2023-05-06T11:33:14.305Z,50.9760
2023-05-06T11:34:16.649Z,51.4318
2023-05-06T11:35:18.865Z,52.0858
2023-05-06T11:36:21.212Z,51.9462
2023-05-06T11:37:23.569Z,52.5506
2023-05-06T11:38:25.876Z,52.0865
2023-05-06T11:39:28.226Z,52.3454
2023-05-06T11:40:30.569Z,52.4159
2023-05-06T11:41:32.940Z,52.0923
2023-05-06T11:42:35.284Z,51.7052
2023-05-06T11:43:37.633Z,52.3564
2023-05-06T11:44:39.970Z,52.1906
2023-05-06T11:45:42.331Z,52.5425
2023-05-06T11:46:44.701Z,52.0894
2023-05-06T11:47:47.152Z,52.1698
2023-05-06T11:48:49.333Z,51.9882
2023-05-06T11:49:51.780Z,52.7284
2023-05-06T11:50:54.063Z,52.8541
2023-05-06T11:51:56.398Z,53.0018
2023-05-06T11:52:58.721Z,51.7958
2023-05-06T11:54:01.107Z,52.4777
2023-05-06T11:55:03.443Z,52.0767
2023-05-06T11:56:05.975Z,51.8951
2023-05-06T11:57:08.160Z,50.0647
2023-05-06T11:58:10.500Z,49.7506
2023-05-06T11:59:12.882Z,49.4792
2023-05-06T12:00:15.775Z,49.0562
2023-05-06T12:01:46.341Z,48.0957
2023-05-06T12:02:48.794Z,47.3980
2023-05-06T12:03:51.218Z,46.8259
2023-05-06T12:04:53.592Z,48.7138
2023-05-06T12:05:56.054Z,49.8322
2023-05-06T12:06:58.388Z,50.3860
2023-05-06T12:08:00.442Z,49.8178
2023-05-06T12:09:02.835Z,50.0121
2023-05-06T12:10:05.184Z,50.5936
2023-05-06T12:11:07.666Z,49.3362
2023-05-06T12:12:09.868Z,50.0758
2023-05-06T12:13:12.274Z,51.6762
2023-05-06T12:14:14.522Z,51.8998
2023-05-06T12:15:16.881Z,51.7812
2023-05-06T12:16:19.321Z,50.4206
2023-05-06T12:17:21.595Z,51.1421
2023-05-06T12:18:23.905Z,49.0552
2023-05-06T12:19:26.294Z,50.9137
2023-05-06T12:20:28.621Z,52.0204
2023-05-06T12:21:31.045Z,52.4826
2023-05-06T12:22:33.314Z,52.0088
2023-05-06T12:23:35.706Z,52.0003
2023-05-06T12:24:38.015Z,51.4434
2023-05-06T12:25:40.345Z,51.6255
2023-05-06T12:26:42.734Z,50.6562
2023-05-06T12:27:45.065Z,50.4968
2023-05-06T12:28:47.388Z,50.2848
2023-05-06T12:29:49.749Z,49.6301
2023-05-06T12:30:52.098Z,49.0860
2023-05-06T12:31:54.494Z,48.0457
2023-05-06T12:32:56.901Z,48.8601
2023-05-06T12:34:01.088Z,50.2371